Time;durP1;ratioP1;P1;durP2;ratioP2;P2;SDS_P1;SDS_P2;PMS_P1;PMS_P2;Temp;Humidity;BMP_temperature;BMP_pressure;BME280_temperature;BME280_humidity;BME280_pressure;Samples;Min_cycle;Max_cycle;Signal;HPM_P1;HPM_P2
2022/05/31 00:02:25;;;;;;;2.30;1.23;;;;;;;;;;5089515;28;20421;-55
2022/05/31 00:04:51;;;;;;;2.80;1.50;;;;;;;;;;5069678;28;20398;-56
2022/05/31 00:07:18;;;;;;;1.52;1.20;;;;;;;;;;5069847;28;20416;-58
2022/05/31 00:09:44;;;;;;;2.08;1.17;;;;;;;;;;5068500;28;20385;-56
2022/05/31 00:12:10;;;;;;;2.53;1.40;;;;;;;;;;5070704;28;20386;-57
2022/05/31 00:14:36;;;;;;;2.13;1.20;;;;;;;;;;5071900;28;20374;-56
2022/05/31 00:17:02;;;;;;;2.45;1.25;;;;;;;;;;5093208;28;20673;-57
2022/05/31 00:19:28;;;;;;;2.20;1.40;;;;;;;;;;5074249;28;20778;-58
2022/05/31 00:22:17;;;;;;;2.47;1.50;;;;;;;;;;5093120;28;20654;-57
2022/05/31 00:24:44;;;;;;;2.15;1.63;;;;;;;;;;5081247;28;20416;-56
2022/05/31 00:27:12;;;;;;;2.00;1.30;;;;;;;;;;5093579;28;20568;-57
2022/05/31 00:29:38;;;;;;;2.65;1.35;;;;;;;;;;5075351;28;20382;-57
2022/05/31 00:32:06;;;;;;;2.42;1.42;;;;;;;;;;5073986;28;20854;-56
2022/05/31 00:34:34;;;;;;;2.33;1.58;;;;;;;;;;5073986;28;20471;-57
2022/05/31 00:37:00;;;;;;;2.40;1.65;;;;;;;;;;5092397;28;20397;-59
2022/05/31 00:39:26;;;;;;;2.93;1.83;;;;;;;;;;5077099;28;20600;-58
2022/05/31 00:41:56;;;;;;;5.60;1.60;;;;;;;;;;5077454;28;20635;-58
2022/05/31 00:44:27;;;;;;;2.20;1.70;;;;;;;;;;5096040;28;20832;-58
2022/05/31 00:46:56;;;;;;;2.25;1.75;;;;;;;;;;5095328;28;20369;-58
2022/05/31 00:49:28;;;;;;;2.47;1.67;;;;;;;;;;5094143;28;20398;-58
2022/05/31 00:51:56;;;;;;;2.10;1.60;;;;;;;;;;5093727;28;20879;-59
2022/05/31 00:54:23;;;;;;;2.80;1.60;;;;;;;;;;5074118;28;20385;-56
2022/05/31 00:56:50;;;;;;;2.50;1.67;;;;;;;;;;5092870;28;20482;-56
2022/05/31 00:59:20;;;;;;;1.90;1.60;;;;;;;;;;5093937;28;20699;-55
2022/05/31 01:01:51;;;;;;;1.98;1.70;;;;;;;;;;5074094;28;20516;-58
2022/05/31 01:04:17;;;;;;;2.67;2.13;;;;;;;;;;5089349;28;20397;-58
2022/05/31 01:06:43;;;;;;;1.73;1.63;;;;;;;;;;5072318;28;20389;-57
2022/05/31 01:09:09;;;;;;;1.92;1.70;;;;;;;;;;5073345;28;20622;-59
2022/05/31 01:11:38;;;;;;;1.98;1.77;;;;;;;;;;5073893;28;20544;-56
2022/05/31 01:14:04;;;;;;;1.63;1.52;;;;;;;;;;5091584;28;20811;-59
2022/05/31 01:16:30;;;;;;;1.60;1.45;;;;;;;;;;5091898;28;20716;-57
2022/05/31 01:18:56;;;;;;;2.08;1.60;;;;;;;;;;5074436;28;20658;-57
2022/05/31 01:21:23;;;;;;;3.00;1.90;;;;;;;;;;5092638;28;20789;-58
2022/05/31 01:23:54;;;;;;;2.45;1.70;;;;;;;;;;5074336;28;20405;-58
2022/05/31 01:26:39;;;;;;;2.38;1.60;;;;;;;;;;5075134;28;20413;-56
2022/05/31 01:29:17;;;;;;;2.30;1.80;;;;;;;;;;5076151;28;20689;-57
2022/05/31 01:31:45;;;;;;;2.50;1.90;;;;;;;;;;5075575;28;20385;-57
2022/05/31 01:34:28;;;;;;;2.55;1.70;;;;;;;;;;5074826;28;20482;-57
2022/05/31 01:36:55;;;;;;;2.15;1.63;;;;;;;;;;5075187;28;20467;-59
2022/05/31 01:39:28;;;;;;;2.23;1.70;;;;;;;;;;5075487;28;20526;-57
2022/05/31 01:42:06;;;;;;;2.97;2.10;;;;;;;;;;5075327;28;20385;-59
2022/05/31 01:44:33;;;;;;;2.13;1.70;;;;;;;;;;5074776;28;20427;-58
2022/05/31 01:47:00;;;;;;;2.80;1.90;;;;;;;;;;5092424;28;20382;-57
2022/05/31 01:49:30;;;;;;;2.50;1.85;;;;;;;;;;5074123;28;20378;-57
2022/05/31 01:51:56;;;;;;;2.65;1.90;;;;;;;;;;5074376;28;20496;-59
2022/05/31 01:54:22;;;;;;;2.17;1.83;;;;;;;;;;5091385;28;20871;-57
2022/05/31 01:56:51;;;;;;;2.15;1.70;;;;;;;;;;5075243;28;20489;-59
2022/05/31 01:59:18;;;;;;;2.10;1.70;;;;;;;;;;5074427;28;20487;-55
2022/05/31 02:01:44;;;;;;;2.92;2.25;;;;;;;;;;5074412;28;20422;-59
2022/05/31 02:04:10;;;;;;;2.40;1.90;;;;;;;;;;5075463;28;20414;-59
2022/05/31 02:06:38;;;;;;;2.38;1.92;;;;;;;;;;5095295;28;20670;-59
2022/05/31 02:09:05;;;;;;;3.17;1.90;;;;;;;;;;5077703;28;20384;-57
2022/05/31 02:11:31;;;;;;;3.03;2.10;;;;;;;;;;5075396;28;20382;-58
2022/05/31 02:13:58;;;;;;;2.17;1.70;;;;;;;;;;5093915;28;20450;-59
2022/05/31 02:16:24;;;;;;;3.65;1.80;;;;;;;;;;5074688;28;20386;-59
2022/05/31 02:21:35;;;;;;;4.70;2.10;;;;;;;;;;5091050;28;20522;-58
2022/05/31 02:24:04;;;;;;;2.83;1.90;;;;;;;;;;5072670;28;20443;-57
2022/05/31 02:26:30;;;;;;;3.03;1.90;;;;;;;;;;5074615;28;20462;-59
2022/05/31 02:28:56;;;;;;;4.20;2.10;;;;;;;;;;5074824;28;20374;-56
2022/05/31 02:31:23;;;;;;;2.28;1.70;;;;;;;;;;5094567;28;20400;-55
2022/05/31 02:33:49;;;;;;;2.55;1.92;;;;;;;;;;5093784;28;20607;-57
2022/05/31 02:36:15;;;;;;;2.00;1.80;;;;;;;;;;5093145;28;20484;-59
2022/05/31 02:38:41;;;;;;;3.00;1.70;;;;;;;;;;5074306;28;20750;-58
2022/05/31 02:41:07;;;;;;;2.90;2.15;;;;;;;;;;5074747;28;20573;-57
2022/05/31 02:43:33;;;;;;;1.63;1.53;;;;;;;;;;5072509;28;20398;-56
2022/05/31 02:46:00;;;;;;;3.60;2.00;;;;;;;;;;5070965;28;20700;-59
2022/05/31 02:48:26;;;;;;;3.00;2.00;;;;;;;;;;5088214;28;20374;-58
2022/05/31 02:50:52;;;;;;;2.53;1.95;;;;;;;;;;5068921;28;20382;-59
2022/05/31 02:53:18;;;;;;;4.25;1.98;;;;;;;;;;5071338;28;20970;-57
2022/05/31 02:55:44;;;;;;;2.33;1.80;;;;;;;;;;5072719;28;20389;-59
2022/05/31 02:58:10;;;;;;;3.72;1.98;;;;;;;;;;5090227;28;20385;-57
2022/05/31 03:00:36;;;;;;;3.25;1.70;;;;;;;;;;5090047;28;20374;-56
2022/05/31 03:03:02;;;;;;;2.33;2.03;;;;;;;;;;5071525;28;20648;-59
2022/05/31 03:05:28;;;;;;;3.33;2.00;;;;;;;;;;5070720;28;20378;-57
2022/05/31 03:07:54;;;;;;;2.75;1.90;;;;;;;;;;5071813;28;20770;-57
2022/05/31 03:10:20;;;;;;;2.60;1.70;;;;;;;;;;5091058;28;20391;-58
2022/05/31 03:12:47;;;;;;;6.15;2.20;;;;;;;;;;5074079;28;20380;-58
2022/05/31 03:15:15;;;;;;;2.73;1.83;;;;;;;;;;5094291;28;20458;-58
2022/05/31 03:17:47;;;;;;;3.38;2.00;;;;;;;;;;5074155;28;20397;-59
2022/05/31 03:20:19;;;;;;;2.38;1.85;;;;;;;;;;5074224;28;20392;-57
2022/05/31 03:22:48;;;;;;;3.38;2.05;;;;;;;;;;5072988;28;20835;-57
2022/05/31 03:25:19;;;;;;;4.15;2.13;;;;;;;;;;5072153;28;20394;-62
2022/05/31 03:27:46;;;;;;;2.65;2.05;;;;;;;;;;5089822;28;20370;-59
2022/05/31 03:30:13;;;;;;;3.40;2.30;;;;;;;;;;5090241;28;20742;-57
2022/05/31 03:35:42;;;;;;;3.38;2.10;;;;;;;;;;5089968;28;20773;-58
2022/05/31 03:38:08;;;;;;;3.33;2.10;;;;;;;;;;5087497;28;20386;-58
2022/05/31 03:43:19;;;;;;;3.15;2.17;;;;;;;;;;5088223;28;20490;-59
2022/05/31 03:45:45;;;;;;;3.33;2.35;;;;;;;;;;5071686;28;20725;-58
2022/05/31 03:48:12;;;;;;;3.58;2.42;;;;;;;;;;5069840;28;20402;-55
2022/05/31 03:50:38;;;;;;;4.22;2.38;;;;;;;;;;5072051;28;20447;-59
2022/05/31 03:53:11;;;;;;;2.63;2.30;;;;;;;;;;5090139;28;20420;-59
2022/05/31 03:55:38;;;;;;;3.50;2.40;;;;;;;;;;5073066;28;20384;-59
2022/05/31 03:58:04;;;;;;;3.65;2.38;;;;;;;;;;5074558;28;20473;-59
2022/05/31 04:00:31;;;;;;;4.38;2.92;;;;;;;;;;5090478;28;20587;-58
2022/05/31 04:02:57;;;;;;;2.77;2.50;;;;;;;;;;5050557;28;20407;-58
2022/05/31 04:05:23;;;;;;;3.13;2.47;;;;;;;;;;5052002;28;20403;-54
2022/05/31 04:07:52;;;;;;;3.47;2.60;;;;;;;;;;5067853;28;20392;-59
2022/05/31 04:10:18;;;;;;;3.03;2.50;;;;;;;;;;5049362;28;20379;-57
2022/05/31 04:12:44;;;;;;;3.95;3.00;;;;;;;;;;5049395;28;20372;-57
2022/05/31 04:15:10;;;;;;;3.50;2.72;;;;;;;;;;5065491;28;20402;-58
2022/05/31 04:17:36;;;;;;;3.17;2.80;;;;;;;;;;5068031;28;20392;-59
2022/05/31 04:20:03;;;;;;;3.58;3.00;;;;;;;;;;5067334;28;20698;-57
2022/05/31 04:22:29;;;;;;;3.70;2.53;;;;;;;;;;5049970;28;20449;-59
2022/05/31 04:25:00;;;;;;;4.47;3.08;;;;;;;;;;5049772;28;20413;-58
2022/05/31 04:27:26;;;;;;;4.13;2.88;;;;;;;;;;5050725;28;20404;-56
2022/05/31 04:29:52;;;;;;;4.20;3.00;;;;;;;;;;5052163;28;20426;-59
2022/05/31 04:32:18;;;;;;;4.30;3.37;;;;;;;;;;5050700;28;20415;-58
2022/05/31 04:34:44;;;;;;;4.25;3.00;;;;;;;;;;5067426;28;20557;-56
2022/05/31 04:37:11;;;;;;;3.42;3.13;;;;;;;;;;5049196;28;20399;-58
2022/05/31 04:39:37;;;;;;;4.15;3.45;;;;;;;;;;5048101;28;20430;-57
2022/05/31 04:42:03;;;;;;;4.10;3.70;;;;;;;;;;5066640;28;20383;-56
2022/05/31 04:44:29;;;;;;;4.13;3.60;;;;;;;;;;5048776;28;20540;-59
2022/05/31 04:46:55;;;;;;;3.60;3.30;;;;;;;;;;5064689;28;20479;-58
2022/05/31 04:49:21;;;;;;;4.30;3.90;;;;;;;;;;5047767;28;20380;-58
2022/05/31 04:51:48;;;;;;;3.80;3.20;;;;;;;;;;5047753;28;20387;-59
2022/05/31 04:54:16;;;;;;;3.88;3.50;;;;;;;;;;5047745;28;20448;-57
2022/05/31 04:56:42;;;;;;;4.10;3.70;;;;;;;;;;5047503;28;20609;-54
2022/05/31 04:59:08;;;;;;;4.10;3.50;;;;;;;;;;5047896;28;20392;-57
2022/05/31 05:01:35;;;;;;;3.63;3.33;;;;;;;;;;5055679;28;20418;-59
2022/05/31 05:04:01;;;;;;;3.50;3.20;;;;;;;;;;5069928;28;20506;-58
2022/05/31 05:06:27;;;;;;;3.50;3.17;;;;;;;;;;5070985;28;20607;-57
2022/05/31 05:08:53;;;;;;;3.50;3.20;;;;;;;;;;5071908;28;20625;-59
2022/05/31 05:11:21;;;;;;;3.45;3.15;;;;;;;;;;5068254;28;20748;-59
2022/05/31 05:13:47;;;;;;;3.40;3.10;;;;;;;;;;5070047;28;20372;-59
2022/05/31 05:16:14;;;;;;;5.07;3.38;;;;;;;;;;5070029;28;20372;-58
2022/05/31 05:18:40;;;;;;;4.22;3.03;;;;;;;;;;5070529;28;20384;-57
2022/05/31 05:21:09;;;;;;;3.42;3.13;;;;;;;;;;5069652;28;20404;-57
2022/05/31 05:23:35;;;;;;;3.22;2.92;;;;;;;;;;5070512;28;20400;-59
2022/05/31 05:26:01;;;;;;;3.40;3.10;;;;;;;;;;5071245;28;20699;-54
2022/05/31 05:31:26;;;;;;;3.40;2.72;;;;;;;;;;5070503;28;20637;-57
2022/05/31 05:33:52;;;;;;;3.60;2.75;;;;;;;;;;5069280;28;20792;-59
2022/05/31 05:36:18;;;;;;;2.63;2.43;;;;;;;;;;5070079;28;20388;-58
2022/05/31 05:38:44;;;;;;;3.23;2.63;;;;;;;;;;5066587;28;20384;-55
2022/05/31 05:41:11;;;;;;;3.05;2.60;;;;;;;;;;5067684;28;20791;-58
2022/05/31 05:43:37;;;;;;;2.53;2.15;;;;;;;;;;5066847;28;20465;-59
2022/05/31 05:46:03;;;;;;;2.40;2.20;;;;;;;;;;5067147;28;20371;-58
2022/05/31 05:48:29;;;;;;;2.03;1.63;;;;;;;;;;5066378;28;20399;-59
2022/05/31 05:50:55;;;;;;;2.08;1.85;;;;;;;;;;5065399;28;20402;-59
2022/05/31 05:53:22;;;;;;;2.20;1.70;;;;;;;;;;5064039;28;20388;-56
2022/05/31 05:55:48;;;;;;;2.42;1.90;;;;;;;;;;5063425;28;20376;-56
2022/05/31 05:58:14;;;;;;;1.60;1.50;;;;;;;;;;5063798;28;20382;-58
2022/05/31 06:00:43;;;;;;;2.20;1.40;;;;;;;;;;5062660;28;20399;-56
2022/05/31 06:03:17;;;;;;;1.70;1.58;;;;;;;;;;5064842;28;21036;-57
2022/05/31 06:05:46;;;;;;;1.88;1.52;;;;;;;;;;5066076;28;20384;-58
2022/05/31 06:08:14;;;;;;;1.65;1.23;;;;;;;;;;5066326;28;20468;-58
2022/05/31 06:10:42;;;;;;;1.65;1.10;;;;;;;;;;5068199;28;20382;-59
2022/05/31 06:13:14;;;;;;;1.80;1.10;;;;;;;;;;5066695;28;20374;-57
2022/05/31 06:15:44;;;;;;;1.80;1.17;;;;;;;;;;5066499;28;20378;-58
2022/05/31 06:18:12;;;;;;;1.67;1.00;;;;;;;;;;5068219;28;20550;-59
2022/05/31 06:20:38;;;;;;;1.48;1.05;;;;;;;;;;5064585;28;20393;-58
2022/05/31 06:23:04;;;;;;;1.17;1.00;;;;;;;;;;5063494;28;20480;-59
2022/05/31 06:25:30;;;;;;;1.10;0.90;;;;;;;;;;5062024;28;20684;-59
2022/05/31 06:27:56;;;;;;;2.08;1.00;;;;;;;;;;5078167;28;20374;-55
2022/05/31 06:30:22;;;;;;;2.67;1.00;;;;;;;;;;5061418;28;20382;-58
2022/05/31 06:32:48;;;;;;;2.40;1.17;;;;;;;;;;5081110;28;20654;-59
2022/05/31 06:35:14;;;;;;;1.95;1.15;;;;;;;;;;5063020;28;20719;-57
2022/05/31 06:37:40;;;;;;;1.55;0.90;;;;;;;;;;5063626;28;20766;-60
2022/05/31 06:40:07;;;;;;;3.30;1.50;;;;;;;;;;5082030;28;20378;-58
2022/05/31 06:42:33;;;;;;;2.25;1.20;;;;;;;;;;5078110;28;20522;-59
2022/05/31 06:45:00;;;;;;;1.60;1.05;;;;;;;;;;5062318;28;20807;-59
2022/05/31 06:47:26;;;;;;;1.95;1.00;;;;;;;;;;5064356;28;20801;-59
2022/05/31 06:49:53;;;;;;;1.40;1.00;;;;;;;;;;5062451;28;20390;-57
2022/05/31 06:57:48;;;;;;;1.80;1.23;;;;;;;;;;5083357;28;20372;-58
2022/05/31 07:00:16;;;;;;;0.93;0.80;;;;;;;;;;5063902;28;20382;-58
2022/05/31 07:02:42;;;;;;;1.10;0.75;;;;;;;;;;5063964;28;20660;-58
2022/05/31 07:05:10;;;;;;;1.02;0.80;;;;;;;;;;5080015;28;20402;-57
2022/05/31 07:07:36;;;;;;;2.08;1.17;;;;;;;;;;5062684;28;20394;-57
2022/05/31 07:10:06;;;;;;;1.58;0.90;;;;;;;;;;5062180;28;20404;-57
2022/05/31 07:12:32;;;;;;;2.05;0.88;;;;;;;;;;5062007;28;20674;-56
2022/05/31 07:14:58;;;;;;;2.53;1.02;;;;;;;;;;5061961;28;20799;-56
2022/05/31 07:17:25;;;;;;;2.38;1.33;;;;;;;;;;5078839;28;20446;-59
2022/05/31 07:19:52;;;;;;;3.17;1.50;;;;;;;;;;5076604;28;20386;-59
2022/05/31 07:22:18;;;;;;;1.27;1.00;;;;;;;;;;5058568;28;20557;-59
2022/05/31 07:24:44;;;;;;;2.30;1.40;;;;;;;;;;5075224;28;20561;-58
2022/05/31 07:27:12;;;;;;;2.78;1.50;;;;;;;;;;5042849;28;20386;-59
2022/05/31 07:29:38;;;;;;;2.90;1.30;;;;;;;;;;5060230;28;20362;-58
2022/05/31 07:32:04;;;;;;;2.38;1.42;;;;;;;;;;5062799;28;20656;-57
2022/05/31 07:34:30;;;;;;;1.50;1.30;;;;;;;;;;5081850;28;20446;-58
2022/05/31 07:36:57;;;;;;;2.05;1.40;;;;;;;;;;5062203;28;20414;-55
2022/05/31 07:39:24;;;;;;;2.13;1.50;;;;;;;;;;5063098;28;20794;-58
2022/05/31 07:41:52;;;;;;;2.55;1.40;;;;;;;;;;5063963;28;20397;-59
2022/05/31 07:44:18;;;;;;;2.07;1.20;;;;;;;;;;5064505;28;20402;-59
2022/05/31 07:46:44;;;;;;;1.58;1.20;;;;;;;;;;5064049;28;20778;-57
2022/05/31 07:49:10;;;;;;;2.17;1.65;;;;;;;;;;5046215;28;20392;-58
2022/05/31 07:51:36;;;;;;;2.25;1.13;;;;;;;;;;5063996;28;20444;-58
2022/05/31 07:54:02;;;;;;;1.88;1.05;;;;;;;;;;5065225;28;20394;-56
2022/05/31 07:56:28;;;;;;;2.00;1.50;;;;;;;;;;5061095;28;20431;-58
2022/05/31 07:58:54;;;;;;;4.00;1.40;;;;;;;;;;5057484;28;20456;-59
2022/05/31 08:01:25;;;;;;;1.73;1.00;;;;;;;;;;5058057;28;20694;-56
2022/05/31 08:03:52;;;;;;;1.73;0.95;;;;;;;;;;5076226;28;20454;-57
2022/05/31 08:06:19;;;;;;;1.40;0.88;;;;;;;;;;5077757;28;20481;-59
2022/05/31 08:08:46;;;;;;;1.17;0.68;;;;;;;;;;5060016;28;20378;-59
2022/05/31 08:11:14;;;;;;;2.20;0.90;;;;;;;;;;5078327;28;20535;-57
2022/05/31 08:13:40;;;;;;;2.80;1.20;;;;;;;;;;5061249;28;20671;-58
2022/05/31 08:16:07;;;;;;;1.38;0.90;;;;;;;;;;5076601;28;20405;-58
2022/05/31 08:18:33;;;;;;;3.15;1.20;;;;;;;;;;5060656;28;20438;-53
2022/05/31 08:21:00;;;;;;;1.25;1.00;;;;;;;;;;5081311;28;20434;-57
2022/05/31 08:23:26;;;;;;;2.03;1.33;;;;;;;;;;5062586;28;20443;-59
2022/05/31 08:25:54;;;;;;;1.23;1.00;;;;;;;;;;5061142;28;20417;-59
2022/05/31 08:28:20;;;;;;;1.52;0.82;;;;;;;;;;5079467;28;20386;-58
2022/05/31 08:30:47;;;;;;;2.00;1.20;;;;;;;;;;5062051;28;20673;-57
2022/05/31 08:33:13;;;;;;;2.88;1.60;;;;;;;;;;5066998;28;20408;-56
2022/05/31 08:35:39;;;;;;;1.40;1.30;;;;;;;;;;5066462;28;20378;-55
2022/05/31 08:38:05;;;;;;;2.78;1.60;;;;;;;;;;5087871;28;20972;-58
2022/05/31 08:40:38;;;;;;;2.22;1.48;;;;;;;;;;5069794;28;20443;-58
2022/05/31 08:43:07;;;;;;;1.55;1.10;;;;;;;;;;5070451;28;20374;-59
2022/05/31 08:45:33;;;;;;;2.15;1.50;;;;;;;;;;5070351;28;20405;-59
2022/05/31 08:48:03;;;;;;;4.18;1.70;;;;;;;;;;5087558;28;20374;-59
2022/05/31 08:53:27;;;;;;;3.83;1.65;;;;;;;;;;5086248;28;20377;-57
2022/05/31 08:58:50;;;;;;;4.53;1.90;;;;;;;;;;5085285;28;20423;-57
2022/05/31 09:01:18;;;;;;;3.28;2.15;;;;;;;;;;5066407;28;21011;-59
2022/05/31 09:03:46;;;;;;;1.45;1.35;;;;;;;;;;5065165;28;20421;-58
2022/05/31 09:06:30;;;;;;;2.00;1.30;;;;;;;;;;5068096;28;20442;-57
2022/05/31 09:09:06;;;;;;;1.85;1.40;;;;;;;;;;5067975;28;20407;-59
2022/05/31 09:11:52;;;;;;;3.30;1.90;;;;;;;;;;5066018;28;20384;-64
2022/05/31 09:14:28;;;;;;;1.77;1.50;;;;;;;;;;5023772;28;20423;-64
2022/05/31 09:16:58;;;;;;;2.22;1.70;;;;;;;;;;5065857;28;20478;-58
2022/05/31 09:19:27;;;;;;;3.22;1.50;;;;;;;;;;5066780;28;20838;-56
2022/05/31 09:21:53;;;;;;;3.30;2.28;;;;;;;;;;5065035;28;20403;-56
2022/05/31 09:24:22;;;;;;;2.60;2.20;;;;;;;;;;5066532;28;20465;-57
2022/05/31 09:27:03;;;;;;;5.27;2.53;;;;;;;;;;5066159;28;20390;-58
2022/05/31 09:29:37;;;;;;;3.22;2.55;;;;;;;;;;5066212;28;20380;-58
2022/05/31 09:32:21;;;;;;;4.15;2.13;;;;;;;;;;5067993;28;20375;-57
2022/05/31 09:35:04;;;;;;;2.67;2.20;;;;;;;;;;5068743;28;20460;-58
2022/05/31 09:37:49;;;;;;;2.75;2.00;;;;;;;;;;5068716;28;20637;-58
2022/05/31 09:40:22;;;;;;;3.03;2.00;;;;;;;;;;5065724;28;20539;-58
2022/05/31 09:43:04;;;;;;;1.92;1.60;;;;;;;;;;5062049;28;20798;-59
2022/05/31 09:45:33;;;;;;;3.13;1.90;;;;;;;;;;5060297;28;20407;-56
2022/05/31 09:47:59;;;;;;;1.95;1.63;;;;;;;;;;5059637;28;20748;-57
2022/05/31 09:50:26;;;;;;;2.95;2.08;;;;;;;;;;5059164;28;20384;-59
2022/05/31 09:52:58;;;;;;;2.60;1.80;;;;;;;;;;5059321;28;20673;-57
2022/05/31 09:58:42;;;;;;;2.47;1.90;;;;;;;;;;5058094;28;20390;-58
2022/05/31 10:01:23;;;;;;;3.00;1.85;;;;;;;;;;5061938;28;20401;-57
2022/05/31 10:03:54;;;;;;;4.00;2.03;;;;;;;;;;5060538;28;20840;-58
2022/05/31 10:06:19;;;;;;;2.17;1.70;;;;;;;;;;5059649;28;20596;-59
2022/05/31 10:08:51;;;;;;;2.80;1.90;;;;;;;;;;5059052;28;20874;-54
2022/05/31 10:11:37;;;;;;;3.53;1.83;;;;;;;;;;5059519;28;20751;-57
2022/05/31 10:14:05;;;;;;;3.60;2.50;;;;;;;;;;5059703;28;20436;-59
2022/05/31 10:16:35;;;;;;;3.05;2.30;;;;;;;;;;5062347;28;20492;-54
2022/05/31 10:19:04;;;;;;;2.65;2.08;;;;;;;;;;5061807;28;20393;-59
2022/05/31 10:21:32;;;;;;;4.20;2.30;;;;;;;;;;5060768;28;20732;-57
2022/05/31 10:24:05;;;;;;;3.38;2.22;;;;;;;;;;5059913;28;20398;-57
2022/05/31 10:26:33;;;;;;;2.00;1.80;;;;;;;;;;5057198;28;20470;-58
2022/05/31 10:29:00;;;;;;;2.42;1.98;;;;;;;;;;5055534;28;20370;-59
2022/05/31 10:31:29;;;;;;;4.30;2.42;;;;;;;;;;5057461;28;20382;-57
2022/05/31 10:33:57;;;;;;;3.42;2.22;;;;;;;;;;5075901;28;20439;-58
2022/05/31 10:36:24;;;;;;;1.98;1.58;;;;;;;;;;5059427;28;20397;-58
2022/05/31 10:38:51;;;;;;;5.30;2.03;;;;;;;;;;5060305;28;20789;-58
2022/05/31 10:41:22;;;;;;;2.37;1.70;;;;;;;;;;5060516;28;20553;-58
2022/05/31 10:44:17;;;;;;;3.40;2.10;;;;;;;;;;5078150;28;20398;-59
2022/05/31 10:46:46;;;;;;;1.85;1.60;;;;;;;;;;5041137;28;20538;-59
2022/05/31 10:49:15;;;;;;;2.15;1.30;;;;;;;;;;5062252;28;20445;-58
2022/05/31 10:51:41;;;;;;;1.88;1.30;;;;;;;;;;5068134;28;20402;-58
2022/05/31 10:54:13;;;;;;;1.85;1.30;;;;;;;;;;5089872;28;20413;-57
2022/05/31 10:56:47;;;;;;;3.50;1.60;;;;;;;;;;5070928;28;20393;-59
2022/05/31 10:59:25;;;;;;;3.28;1.33;;;;;;;;;;5070315;28;20492;-58
2022/05/31 11:01:59;;;;;;;3.38;1.60;;;;;;;;;;5067109;28;20403;-57
2022/05/31 11:04:41;;;;;;;3.17;1.38;;;;;;;;;;5063923;28;20540;-56
2022/05/31 11:07:13;;;;;;;1.75;1.00;;;;;;;;;;5063573;28;20666;-58
2022/05/31 11:12:42;;;;;;;2.80;1.52;;;;;;;;;;5065775;28;20367;-57
2022/05/31 11:15:41;;;;;;;1.63;1.20;;;;;;;;;;5064792;28;20417;-59
2022/05/31 11:18:10;;;;;;;1.85;1.10;;;;;;;;;;5021237;28;20494;-58
2022/05/31 11:20:45;;;;;;;1.83;1.10;;;;;;;;;;5065763;28;21097;-57
2022/05/31 11:23:15;;;;;;;1.55;1.30;;;;;;;;;;5066887;28;20395;-56
2022/05/31 11:25:52;;;;;;;2.40;1.20;;;;;;;;;;5063323;28;20699;-58
2022/05/31 11:28:30;;;;;;;1.83;1.07;;;;;;;;;;5063298;28;20388;-58
2022/05/31 11:30:55;;;;;;;2.00;1.15;;;;;;;;;;5063085;28;20391;-58
2022/05/31 11:33:40;;;;;;;2.10;1.10;;;;;;;;;;5064169;28;20856;-58
2022/05/31 11:36:06;;;;;;;1.42;0.85;;;;;;;;;;5064310;28;20399;-58
2022/05/31 11:38:38;;;;;;;1.45;1.00;;;;;;;;;;5064188;28;20380;-57
2022/05/31 11:41:33;;;;;;;2.00;1.20;;;;;;;;;;5065331;28;20412;-56
2022/05/31 11:44:18;;;;;;;1.38;0.80;;;;;;;;;;5065338;28;20700;-58
2022/05/31 11:46:50;;;;;;;2.08;1.60;;;;;;;;;;5064872;28;20448;-58
2022/05/31 11:49:16;;;;;;;2.27;1.10;;;;;;;;;;5065513;28;20378;-56
2022/05/31 11:51:48;;;;;;;0.80;0.80;;;;;;;;;;5063528;28;20645;-58
2022/05/31 11:54:24;;;;;;;1.50;0.90;;;;;;;;;;5064949;28;20426;-58
2022/05/31 11:56:59;;;;;;;2.75;1.08;;;;;;;;;;5067163;28;20953;-57
2022/05/31 11:59:33;;;;;;;1.25;0.70;;;;;;;;;;5065063;28;20491;-57
2022/05/31 12:02:19;;;;;;;2.30;1.15;;;;;;;;;;5067134;28;20420;-58
2022/05/31 12:04:52;;;;;;;2.43;1.07;;;;;;;;;;5068111;28;20404;-58
2022/05/31 12:07:31;;;;;;;1.23;0.93;;;;;;;;;;5067504;28;20969;-58
2022/05/31 12:10:01;;;;;;;1.77;1.05;;;;;;;;;;5066517;28;20390;-57
2022/05/31 12:12:31;;;;;;;2.30;1.00;;;;;;;;;;5068828;28;20475;-58
2022/05/31 12:15:10;;;;;;;1.95;0.98;;;;;;;;;;5066670;28;20395;-58
2022/05/31 12:17:56;;;;;;;0.97;0.83;;;;;;;;;;5068824;28;20806;-56
2022/05/31 12:20:37;;;;;;;1.88;0.90;;;;;;;;;;5069386;28;20384;-58
2022/05/31 12:23:07;;;;;;;0.93;0.70;;;;;;;;;;5066728;28;20383;-59
2022/05/31 12:25:40;;;;;;;1.38;0.85;;;;;;;;;;5067809;28;20834;-55
2022/05/31 12:28:17;;;;;;;0.80;0.70;;;;;;;;;;5067896;28;20376;-57
2022/05/31 12:30:54;;;;;;;1.58;0.90;;;;;;;;;;5071153;28;20375;-58
2022/05/31 12:33:47;;;;;;;1.00;0.90;;;;;;;;;;5069473;28;21064;-56
2022/05/31 12:36:25;;;;;;;1.08;0.77;;;;;;;;;;5064518;28;20411;-56
2022/05/31 12:39:04;;;;;;;1.08;0.68;;;;;;;;;;5068692;28;20892;-58
2022/05/31 12:41:41;;;;;;;1.40;0.80;;;;;;;;;;5067115;28;20648;-58
2022/05/31 12:44:12;;;;;;;2.47;0.82;;;;;;;;;;5066168;28;20410;-57
2022/05/31 12:46:45;;;;;;;1.40;0.70;;;;;;;;;;5068279;28;20964;-58
2022/05/31 12:49:21;;;;;;;0.40;0.40;;;;;;;;;;5067251;28;20379;-58
2022/05/31 12:52:06;;;;;;;3.20;0.75;;;;;;;;;;5068929;28;20407;-58
2022/05/31 12:54:46;;;;;;;1.35;0.60;;;;;;;;;;5067901;28;20399;-58
2022/05/31 12:57:21;;;;;;;1.23;0.63;;;;;;;;;;5068366;28;20388;-57
2022/05/31 12:59:48;;;;;;;0.60;0.60;;;;;;;;;;5070633;28;20390;-58
2022/05/31 13:02:21;;;;;;;0.60;0.57;;;;;;;;;;5083528;28;20438;-56
2022/05/31 13:04:55;;;;;;;0.70;0.60;;;;;;;;;;5088198;28;20874;-58
2022/05/31 13:07:22;;;;;;;1.35;0.85;;;;;;;;;;5090675;28;20701;-58
2022/05/31 13:09:48;;;;;;;0.88;0.55;;;;;;;;;;5073822;28;20523;-56
2022/05/31 13:20:59;;;;;;;1.98;0.90;;;;;;;;;;5091172;28;20401;-58
2022/05/31 13:23:27;;;;;;;1.90;0.80;;;;;;;;;;5073701;28;20971;-58
2022/05/31 13:26:05;;;;;;;1.27;0.80;;;;;;;;;;5073120;28;20877;-59
2022/05/31 13:28:41;;;;;;;3.00;1.00;;;;;;;;;;5073392;28;20399;-58
2022/05/31 13:31:13;;;;;;;1.05;0.82;;;;;;;;;;5074348;28;20964;-55
2022/05/31 13:33:39;;;;;;;1.48;1.00;;;;;;;;;;5091524;28;20401;-56
2022/05/31 13:36:20;;;;;;;1.67;1.05;;;;;;;;;;5073635;28;20437;-58
2022/05/31 13:38:47;;;;;;;2.05;1.00;;;;;;;;;;5072138;28;20723;-58
2022/05/31 13:41:14;;;;;;;0.93;0.70;;;;;;;;;;5072191;28;20378;-58
2022/05/31 13:43:48;;;;;;;2.00;0.73;;;;;;;;;;5071934;28;20430;-57
2022/05/31 13:46:17;;;;;;;1.33;0.80;;;;;;;;;;5070750;28;20397;-59
2022/05/31 13:48:47;;;;;;;1.55;1.00;;;;;;;;;;5072881;28;20452;-59
2022/05/31 13:51:20;;;;;;;2.33;1.00;;;;;;;;;;5071999;28;20442;-58
2022/05/31 13:53:46;;;;;;;1.52;0.90;;;;;;;;;;5070190;28;20673;-59
2022/05/31 13:56:17;;;;;;;1.45;0.75;;;;;;;;;;5087455;28;20374;-58
2022/05/31 13:58:43;;;;;;;1.90;0.93;;;;;;;;;;5072612;28;20454;-58
2022/05/31 14:01:21;;;;;;;1.88;0.88;;;;;;;;;;5091003;28;20435;-58
2022/05/31 14:03:48;;;;;;;4.05;1.10;;;;;;;;;;5067019;28;20394;-60
2022/05/31 14:06:15;;;;;;;1.75;0.98;;;;;;;;;;5083846;28;20385;-58
2022/05/31 14:09:08;;;;;;;2.45;1.30;;;;;;;;;;5066128;28;20382;-58
2022/05/31 14:11:43;;;;;;;2.00;1.30;;;;;;;;;;5078230;28;20473;-58
2022/05/31 14:14:28;;;;;;;2.60;1.50;;;;;;;;;;5066463;28;20421;-59
2022/05/31 14:16:55;;;;;;;3.67;1.00;;;;;;;;;;5063270;28;20374;-58
2022/05/31 14:19:24;;;;;;;1.42;0.90;;;;;;;;;;5081326;28;20557;-58
2022/05/31 14:21:52;;;;;;;1.17;0.88;;;;;;;;;;5063648;28;20580;-58
2022/05/31 14:24:19;;;;;;;1.83;0.88;;;;;;;;;;5061754;28;20801;-58
2022/05/31 14:26:47;;;;;;;2.10;1.20;;;;;;;;;;5059812;28;20539;-58
2022/05/31 14:29:23;;;;;;;1.92;1.10;;;;;;;;;;5057212;28;20476;-58
2022/05/31 14:32:05;;;;;;;1.77;1.23;;;;;;;;;;5057431;28;20369;-57
2022/05/31 14:34:46;;;;;;;1.13;0.85;;;;;;;;;;5055828;28;20900;-58
2022/05/31 14:37:14;;;;;;;1.75;0.98;;;;;;;;;;5055999;28;20874;-57
2022/05/31 14:39:48;;;;;;;1.13;0.93;;;;;;;;;;5059011;28;20374;-56
2022/05/31 14:42:14;;;;;;;2.17;0.80;;;;;;;;;;5077315;28;20612;-57
2022/05/31 14:44:50;;;;;;;2.28;1.05;;;;;;;;;;5076207;28;20486;-59
2022/05/31 14:47:23;;;;;;;1.85;1.08;;;;;;;;;;5061228;28;20521;-59
2022/05/31 14:50:10;;;;;;;2.78;1.13;;;;;;;;;;5061475;28;20465;-56
2022/05/31 14:52:49;;;;;;;3.13;1.27;;;;;;;;;;5080090;28;20398;-56
2022/05/31 14:55:15;;;;;;;2.15;1.13;;;;;;;;;;5080407;28;20381;-56
2022/05/31 15:00:27;;;;;;;2.67;1.27;;;;;;;;;;5078012;28;20490;-57
2022/05/31 15:02:56;;;;;;;2.55;1.15;;;;;;;;;;5059475;28;20471;-56
2022/05/31 15:05:26;;;;;;;2.70;1.02;;;;;;;;;;5060171;28;20397;-57
2022/05/31 15:07:54;;;;;;;1.60;1.00;;;;;;;;;;5060468;28;20394;-56
2022/05/31 15:10:46;;;;;;;1.60;0.90;;;;;;;;;;5060414;28;20579;-57
2022/05/31 15:18:59;;;;;;;1.58;0.80;;;;;;;;;;5082320;28;20412;-58
2022/05/31 15:21:27;;;;;;;1.80;1.37;;;;;;;;;;5067518;28;20705;-57
2022/05/31 15:23:53;;;;;;;2.35;1.20;;;;;;;;;;5083659;28;20405;-54
2022/05/31 15:26:20;;;;;;;1.45;1.30;;;;;;;;;;5066677;28;20382;-58
2022/05/31 15:28:46;;;;;;;2.33;1.63;;;;;;;;;;5066633;28;21031;-59
2022/05/31 15:31:27;;;;;;;1.98;1.33;;;;;;;;;;5065167;28;20492;-58
2022/05/31 15:33:53;;;;;;;1.23;1.00;;;;;;;;;;5066139;28;20481;-53
2022/05/31 15:36:19;;;;;;;2.60;1.10;;;;;;;;;;5066923;28;20801;-56
2022/05/31 15:38:45;;;;;;;0.67;0.63;;;;;;;;;;5082382;28;20378;-57
2022/05/31 15:41:11;;;;;;;0.60;0.60;;;;;;;;;;5065134;28;20563;-58
2022/05/31 15:43:53;;;;;;;0.90;0.70;;;;;;;;;;5064458;28;20385;-58
2022/05/31 15:46:19;;;;;;;1.15;0.80;;;;;;;;;;5063505;28;20780;-57